sensor_id;sensor_type;location;lat;lon;timestamp;P1;durP1;ratioP1;P2;durP2;ratioP2
13147;SDS011;6639;50.956;4.242;2023-02-11T00:01:13;11.63;;;6.95;;
13147;SDS011;6639;50.956;4.242;2023-02-11T00:03:45;9.35;;;6.70;;
13147;SDS011;6639;50.956;4.242;2023-02-11T00:06:12;11.63;;;6.78;;
13147;SDS011;6639;50.956;4.242;2023-02-11T00:08:40;9.43;;;6.97;;
13147;SDS011;6639;50.956;4.242;2023-02-11T00:11:09;12.75;;;6.95;;
13147;SDS011;6639;50.956;4.242;2023-02-11T00:13:39;8.27;;;7.10;;
13147;SDS011;6639;50.956;4.242;2023-02-11T00:16:08;13.07;;;6.97;;
13147;SDS011;6639;50.956;4.242;2023-02-11T00:18:36;12.63;;;6.57;;
13147;SDS011;6639;50.956;4.242;2023-02-11T00:21:07;10.40;;;7.13;;
13147;SDS011;6639;50.956;4.242;2023-02-11T00:23:34;10.68;;;6.00;;
13147;SDS011;6639;50.956;4.242;2023-02-11T00:26:02;14.07;;;7.38;;
13147;SDS011;6639;50.956;4.242;2023-02-11T00:28:31;10.00;;;6.93;;
13147;SDS011;6639;50.956;4.242;2023-02-11T00:30:57;11.07;;;6.18;;
13147;SDS011;6639;50.956;4.242;2023-02-11T00:33:27;9.35;;;5.78;;
13147;SDS011;6639;50.956;4.242;2023-02-11T00:35:54;11.85;;;6.72;;
13147;SDS011;6639;50.956;4.242;2023-02-11T00:38:22;10.05;;;6.25;;
13147;SDS011;6639;50.956;4.242;2023-02-11T00:40:49;12.10;;;7.65;;
13147;SDS011;6639;50.956;4.242;2023-02-11T00:43:16;12.20;;;6.75;;
13147;SDS011;6639;50.956;4.242;2023-02-11T00:45:43;10.98;;;7.22;;
13147;SDS011;6639;50.956;4.242;2023-02-11T00:48:10;9.07;;;6.82;;
13147;SDS011;6639;50.956;4.242;2023-02-11T00:50:38;10.15;;;7.45;;
13147;SDS011;6639;50.956;4.242;2023-02-11T00:53:06;12.82;;;6.95;;
13147;SDS011;6639;50.956;4.242;2023-02-11T00:55:33;12.02;;;7.38;;
13147;SDS011;6639;50.956;4.242;2023-02-11T00:58:00;10.60;;;6.38;;
13147;SDS011;6639;50.956;4.242;2023-02-11T01:00:27;14.40;;;7.53;;
13147;SDS011;6639;50.956;4.242;2023-02-11T01:02:54;13.13;;;6.85;;
13147;SDS011;6639;50.956;4.242;2023-02-11T01:05:21;13.90;;;7.80;;
13147;SDS011;6639;50.956;4.242;2023-02-11T01:07:50;14.93;;;6.88;;
13147;SDS011;6639;50.956;4.242;2023-02-11T01:10:17;9.27;;;7.25;;
13147;SDS011;6639;50.956;4.242;2023-02-11T01:12:45;12.40;;;8.35;;
13147;SDS011;6639;50.956;4.242;2023-02-11T01:15:13;17.40;;;7.85;;
13147;SDS011;6639;50.956;4.242;2023-02-11T01:17:41;9.68;;;6.90;;
13147;SDS011;6639;50.956;4.242;2023-02-11T01:20:11;13.85;;;7.93;;
13147;SDS011;6639;50.956;4.242;2023-02-11T01:22:40;11.23;;;7.80;;
13147;SDS011;6639;50.956;4.242;2023-02-11T01:25:10;13.10;;;7.50;;
13147;SDS011;6639;50.956;4.242;2023-02-11T01:27:37;16.60;;;7.43;;
13147;SDS011;6639;50.956;4.242;2023-02-11T01:30:04;12.07;;;8.30;;
13147;SDS011;6639;50.956;4.242;2023-02-11T01:32:33;16.65;;;8.40;;
13147;SDS011;6639;50.956;4.242;2023-02-11T01:35:01;12.18;;;7.32;;
13147;SDS011;6639;50.956;4.242;2023-02-11T01:37:28;12.88;;;8.02;;
13147;SDS011;6639;50.956;4.242;2023-02-11T01:39:57;13.77;;;7.68;;
13147;SDS011;6639;50.956;4.242;2023-02-11T01:42:26;13.27;;;7.65;;
13147;SDS011;6639;50.956;4.242;2023-02-11T01:44:54;11.98;;;7.97;;
13147;SDS011;6639;50.956;4.242;2023-02-11T01:47:22;14.65;;;7.75;;
13147;SDS011;6639;50.956;4.242;2023-02-11T01:49:50;16.95;;;7.93;;
13147;SDS011;6639;50.956;4.242;2023-02-11T01:52:20;14.45;;;7.57;;
13147;SDS011;6639;50.956;4.242;2023-02-11T01:54:51;17.50;;;7.85;;
13147;SDS011;6639;50.956;4.242;2023-02-11T01:57:41;17.65;;;7.93;;
13147;SDS011;6639;50.956;4.242;2023-02-11T02:00:11;13.90;;;8.43;;
13147;SDS011;6639;50.956;4.242;2023-02-11T02:02:43;12.57;;;7.53;;
13147;SDS011;6639;50.956;4.242;2023-02-11T02:05:21;14.68;;;7.57;;
13147;SDS011;6639;50.956;4.242;2023-02-11T02:07:55;11.63;;;6.90;;
13147;SDS011;6639;50.956;4.242;2023-02-11T02:10:27;13.82;;;7.28;;
13147;SDS011;6639;50.956;4.242;2023-02-11T02:12:57;12.07;;;6.47;;
13147;SDS011;6639;50.956;4.242;2023-02-11T02:15:25;13.65;;;7.95;;
13147;SDS011;6639;50.956;4.242;2023-02-11T02:18:09;14.02;;;7.25;;
13147;SDS011;6639;50.956;4.242;2023-02-11T02:24:00;14.48;;;6.93;;
13147;SDS011;6639;50.956;4.242;2023-02-11T02:27:04;13.45;;;7.22;;
13147;SDS011;6639;50.956;4.242;2023-02-11T02:29:50;16.80;;;7.55;;
13147;SDS011;6639;50.956;4.242;2023-02-11T02:32:40;12.20;;;7.05;;
13147;SDS011;6639;50.956;4.242;2023-02-11T02:35:16;15.20;;;7.45;;
13147;SDS011;6639;50.956;4.242;2023-02-11T02:37:55;15.88;;;7.88;;
13147;SDS011;6639;50.956;4.242;2023-02-11T02:40:28;13.70;;;7.07;;
13147;SDS011;6639;50.956;4.242;2023-02-11T02:42:58;12.00;;;7.30;;
13147;SDS011;6639;50.956;4.242;2023-02-11T02:45:26;10.70;;;6.97;;
13147;SDS011;6639;50.956;4.242;2023-02-11T02:47:55;11.73;;;6.68;;
13147;SDS011;6639;50.956;4.242;2023-02-11T02:50:25;11.35;;;7.45;;
13147;SDS011;6639;50.956;4.242;2023-02-11T02:53:00;14.02;;;7.10;;
13147;SDS011;6639;50.956;4.242;2023-02-11T02:55:44;10.55;;;7.05;;
13147;SDS011;6639;50.956;4.242;2023-02-11T02:58:28;10.77;;;7.15;;
13147;SDS011;6639;50.956;4.242;2023-02-11T03:01:07;12.68;;;7.20;;
13147;SDS011;6639;50.956;4.242;2023-02-11T03:03:46;14.77;;;7.07;;
13147;SDS011;6639;50.956;4.242;2023-02-11T03:06:20;11.73;;;6.72;;
13147;SDS011;6639;50.956;4.242;2023-02-11T03:08:56;13.45;;;6.90;;
13147;SDS011;6639;50.956;4.242;2023-02-11T03:11:29;11.48;;;6.97;;
13147;SDS011;6639;50.956;4.242;2023-02-11T03:13:56;14.00;;;7.32;;
13147;SDS011;6639;50.956;4.242;2023-02-11T03:16:28;14.18;;;6.93;;
13147;SDS011;6639;50.956;4.242;2023-02-11T03:19:02;15.73;;;7.00;;
13147;SDS011;6639;50.956;4.242;2023-02-11T03:21:33;10.98;;;6.60;;
13147;SDS011;6639;50.956;4.242;2023-02-11T03:24:05;13.65;;;6.57;;
13147;SDS011;6639;50.956;4.242;2023-02-11T03:26:37;15.10;;;7.43;;
13147;SDS011;6639;50.956;4.242;2023-02-11T03:29:09;11.73;;;6.90;;
13147;SDS011;6639;50.956;4.242;2023-02-11T03:31:44;11.10;;;6.97;;
13147;SDS011;6639;50.956;4.242;2023-02-11T03:34:20;17.85;;;7.70;;
13147;SDS011;6639;50.956;4.242;2023-02-11T03:36:53;13.65;;;7.82;;
13147;SDS011;6639;50.956;4.242;2023-02-11T03:39:26;13.32;;;6.50;;
13147;SDS011;6639;50.956;4.242;2023-02-11T03:41:56;10.43;;;7.25;;
13147;SDS011;6639;50.956;4.242;2023-02-11T03:44:27;12.60;;;7.15;;
13147;SDS011;6639;50.956;4.242;2023-02-11T03:46:58;12.68;;;7.00;;
13147;SDS011;6639;50.956;4.242;2023-02-11T03:49:29;11.60;;;7.10;;
13147;SDS011;6639;50.956;4.242;2023-02-11T03:51:58;14.80;;;7.22;;
13147;SDS011;6639;50.956;4.242;2023-02-11T03:54:28;10.60;;;7.35;;
13147;SDS011;6639;50.956;4.242;2023-02-11T03:56:57;11.27;;;6.95;;
13147;SDS011;6639;50.956;4.242;2023-02-11T03:59:25;8.18;;;6.68;;
13147;SDS011;6639;50.956;4.242;2023-02-11T04:01:52;12.77;;;7.90;;
13147;SDS011;6639;50.956;4.242;2023-02-11T04:04:19;15.95;;;7.57;;
13147;SDS011;6639;50.956;4.242;2023-02-11T04:06:48;19.27;;;8.30;;
13147;SDS011;6639;50.956;4.242;2023-02-11T04:09:15;13.93;;;8.30;;
13147;SDS011;6639;50.956;4.242;2023-02-11T04:11:42;13.07;;;8.05;;
13147;SDS011;6639;50.956;4.242;2023-02-11T04:14:09;18.10;;;8.82;;
13147;SDS011;6639;50.956;4.242;2023-02-11T04:16:36;14.43;;;8.27;;
13147;SDS011;6639;50.956;4.242;2023-02-11T04:19:03;12.98;;;7.93;;
13147;SDS011;6639;50.956;4.242;2023-02-11T04:21:33;14.95;;;8.65;;
13147;SDS011;6639;50.956;4.242;2023-02-11T04:24:02;12.48;;;7.97;;
13147;SDS011;6639;50.956;4.242;2023-02-11T04:26:29;11.77;;;7.60;;
13147;SDS011;6639;50.956;4.242;2023-02-11T04:28:56;14.25;;;7.93;;
13147;SDS011;6639;50.956;4.242;2023-02-11T04:31:23;11.77;;;8.32;;
13147;SDS011;6639;50.956;4.242;2023-02-11T04:33:50;11.75;;;8.00;;
13147;SDS011;6639;50.956;4.242;2023-02-11T04:36:17;12.63;;;7.78;;
13147;SDS011;6639;50.956;4.242;2023-02-11T04:38:44;13.82;;;8.32;;
13147;SDS011;6639;50.956;4.242;2023-02-11T04:41:13;14.75;;;8.35;;
13147;SDS011;6639;50.956;4.242;2023-02-11T04:43:40;17.05;;;8.70;;
13147;SDS011;6639;50.956;4.242;2023-02-11T04:46:07;11.15;;;8.60;;
13147;SDS011;6639;50.956;4.242;2023-02-11T04:48:34;14.13;;;8.85;;
13147;SDS011;6639;50.956;4.242;2023-02-11T04:51:01;12.23;;;7.45;;
13147;SDS011;6639;50.956;4.242;2023-02-11T04:53:29;14.30;;;8.48;;
13147;SDS011;6639;50.956;4.242;2023-02-11T04:55:56;19.48;;;8.93;;
13147;SDS011;6639;50.956;4.242;2023-02-11T04:58:24;14.00;;;8.95;;
13147;SDS011;6639;50.956;4.242;2023-02-11T05:00:51;13.95;;;7.93;;
13147;SDS011;6639;50.956;4.242;2023-02-11T05:03:18;11.60;;;8.35;;
13147;SDS011;6639;50.956;4.242;2023-02-11T05:05:46;16.25;;;8.48;;
13147;SDS011;6639;50.956;4.242;2023-02-11T05:08:12;12.60;;;8.57;;
13147;SDS011;6639;50.956;4.242;2023-02-11T05:10:39;14.77;;;8.85;;
13147;SDS011;6639;50.956;4.242;2023-02-11T05:13:11;13.55;;;9.27;;
13147;SDS011;6639;50.956;4.242;2023-02-11T05:15:40;13.20;;;7.82;;
13147;SDS011;6639;50.956;4.242;2023-02-11T05:18:07;12.75;;;9.02;;
13147;SDS011;6639;50.956;4.242;2023-02-11T05:20:36;11.90;;;9.05;;
13147;SDS011;6639;50.956;4.242;2023-02-11T05:23:03;19.55;;;10.07;;
13147;SDS011;6639;50.956;4.242;2023-02-11T05:25:30;20.33;;;9.63;;
13147;SDS011;6639;50.956;4.242;2023-02-11T05:27:57;12.30;;;9.30;;
13147;SDS011;6639;50.956;4.242;2023-02-11T05:30:24;13.68;;;9.68;;
13147;SDS011;6639;50.956;4.242;2023-02-11T05:32:52;15.32;;;9.45;;
13147;SDS011;6639;50.956;4.242;2023-02-11T05:35:19;15.82;;;9.38;;
13147;SDS011;6639;50.956;4.242;2023-02-11T05:37:46;13.85;;;9.85;;
13147;SDS011;6639;50.956;4.242;2023-02-11T05:40:13;16.13;;;10.52;;
13147;SDS011;6639;50.956;4.242;2023-02-11T05:42:41;18.58;;;9.95;;
13147;SDS011;6639;50.956;4.242;2023-02-11T05:45:08;15.02;;;10.23;;
13147;SDS011;6639;50.956;4.242;2023-02-11T05:47:35;15.70;;;11.48;;
13147;SDS011;6639;50.956;4.242;2023-02-11T05:50:04;14.73;;;10.60;;
13147;SDS011;6639;50.956;4.242;2023-02-11T05:52:31;13.57;;;9.95;;
13147;SDS011;6639;50.956;4.242;2023-02-11T05:54:58;17.95;;;10.80;;
13147;SDS011;6639;50.956;4.242;2023-02-11T05:57:25;15.50;;;10.65;;
13147;SDS011;6639;50.956;4.242;2023-02-11T05:59:55;17.48;;;11.27;;
13147;SDS011;6639;50.956;4.242;2023-02-11T06:02:22;19.58;;;11.45;;
13147;SDS011;6639;50.956;4.242;2023-02-11T06:04:49;13.18;;;10.50;;
13147;SDS011;6639;50.956;4.242;2023-02-11T06:07:18;18.65;;;11.77;;
13147;SDS011;6639;50.956;4.242;2023-02-11T06:09:45;19.75;;;11.70;;
13147;SDS011;6639;50.956;4.242;2023-02-11T06:12:12;16.02;;;9.88;;
13147;SDS011;6639;50.956;4.242;2023-02-11T06:14:40;19.75;;;12.30;;
13147;SDS011;6639;50.956;4.242;2023-02-11T06:17:07;20.02;;;12.43;;
13147;SDS011;6639;50.956;4.242;2023-02-11T06:19:34;16.63;;;12.00;;
13147;SDS011;6639;50.956;4.242;2023-02-11T06:22:01;17.27;;;12.02;;
13147;SDS011;6639;50.956;4.242;2023-02-11T06:24:30;21.02;;;13.20;;
13147;SDS011;6639;50.956;4.242;2023-02-11T06:26:57;18.38;;;12.63;;
13147;SDS011;6639;50.956;4.242;2023-02-11T06:29:24;17.95;;;12.60;;
13147;SDS011;6639;50.956;4.242;2023-02-11T06:31:51;16.08;;;12.43;;
13147;SDS011;6639;50.956;4.242;2023-02-11T06:34:21;21.92;;;12.85;;
13147;SDS011;6639;50.956;4.242;2023-02-11T06:36:48;19.02;;;12.88;;
13147;SDS011;6639;50.956;4.242;2023-02-11T06:39:15;23.55;;;13.07;;
13147;SDS011;6639;50.956;4.242;2023-02-11T06:41:44;19.08;;;13.38;;
13147;SDS011;6639;50.956;4.242;2023-02-11T06:44:11;18.27;;;13.13;;
13147;SDS011;6639;50.956;4.242;2023-02-11T06:46:38;19.83;;;14.00;;
13147;SDS011;6639;50.956;4.242;2023-02-11T06:49:05;19.05;;;15.15;;
13147;SDS011;6639;50.956;4.242;2023-02-11T06:51:32;19.30;;;13.32;;
13147;SDS011;6639;50.956;4.242;2023-02-11T06:53:59;19.92;;;15.05;;
13147;SDS011;6639;50.956;4.242;2023-02-11T06:56:26;20.15;;;15.45;;
13147;SDS011;6639;50.956;4.242;2023-02-11T06:58:56;18.70;;;14.65;;
13147;SDS011;6639;50.956;4.242;2023-02-11T07:01:25;22.60;;;15.25;;
13147;SDS011;6639;50.956;4.242;2023-02-11T07:03:53;18.85;;;15.05;;
13147;SDS011;6639;50.956;4.242;2023-02-11T07:06:21;22.38;;;15.10;;
13147;SDS011;6639;50.956;4.242;2023-02-11T07:08:52;20.92;;;14.75;;
13147;SDS011;6639;50.956;4.242;2023-02-11T07:11:20;24.48;;;15.73;;
13147;SDS011;6639;50.956;4.242;2023-02-11T07:13:51;19.90;;;14.10;;
13147;SDS011;6639;50.956;4.242;2023-02-11T07:16:21;22.48;;;14.35;;
13147;SDS011;6639;50.956;4.242;2023-02-11T07:18:49;19.35;;;15.07;;
13147;SDS011;6639;50.956;4.242;2023-02-11T07:21:18;22.25;;;14.93;;
13147;SDS011;6639;50.956;4.242;2023-02-11T07:23:46;20.92;;;13.30;;
13147;SDS011;6639;50.956;4.242;2023-02-11T07:26:14;20.08;;;13.90;;
13147;SDS011;6639;50.956;4.242;2023-02-11T07:28:43;17.13;;;14.07;;
13147;SDS011;6639;50.956;4.242;2023-02-11T07:31:11;21.63;;;15.20;;
13147;SDS011;6639;50.956;4.242;2023-02-11T07:33:42;21.30;;;15.35;;
13147;SDS011;6639;50.956;4.242;2023-02-11T07:36:10;21.30;;;15.63;;
13147;SDS011;6639;50.956;4.242;2023-02-11T07:38:38;20.75;;;15.15;;
13147;SDS011;6639;50.956;4.242;2023-02-11T07:41:06;22.67;;;16.25;;
13147;SDS011;6639;50.956;4.242;2023-02-11T07:43:35;18.88;;;14.68;;
13147;SDS011;6639;50.956;4.242;2023-02-11T07:46:04;19.88;;;14.20;;
13147;SDS011;6639;50.956;4.242;2023-02-11T07:48:32;25.25;;;16.38;;
13147;SDS011;6639;50.956;4.242;2023-02-11T07:51:07;19.77;;;15.70;;
13147;SDS011;6639;50.956;4.242;2023-02-11T07:53:35;21.38;;;15.05;;
13147;SDS011;6639;50.956;4.242;2023-02-11T07:56:03;22.77;;;15.25;;
13147;SDS011;6639;50.956;4.242;2023-02-11T07:58:32;26.15;;;17.25;;
13147;SDS011;6639;50.956;4.242;2023-02-11T08:01:07;23.38;;;16.83;;
13147;SDS011;6639;50.956;4.242;2023-02-11T08:03:35;22.10;;;16.98;;
13147;SDS011;6639;50.956;4.242;2023-02-11T08:06:03;28.98;;;18.88;;
13147;SDS011;6639;50.956;4.242;2023-02-11T08:08:32;27.10;;;17.92;;
13147;SDS011;6639;50.956;4.242;2023-02-11T08:11:04;26.02;;;18.15;;
13147;SDS011;6639;50.956;4.242;2023-02-11T08:13:31;26.70;;;18.95;;
13147;SDS011;6639;50.956;4.242;2023-02-11T08:15:59;24.77;;;17.90;;
13147;SDS011;6639;50.956;4.242;2023-02-11T08:18:26;25.10;;;19.23;;
13147;SDS011;6639;50.956;4.242;2023-02-11T08:20:53;25.63;;;18.38;;
13147;SDS011;6639;50.956;4.242;2023-02-11T08:23:20;23.55;;;17.88;;
13147;SDS011;6639;50.956;4.242;2023-02-11T08:25:48;27.13;;;18.98;;
13147;SDS011;6639;50.956;4.242;2023-02-11T08:28:15;24.55;;;19.15;;
13147;SDS011;6639;50.956;4.242;2023-02-11T08:30:42;27.00;;;20.13;;
13147;SDS011;6639;50.956;4.242;2023-02-11T08:33:09;21.15;;;18.33;;
13147;SDS011;6639;50.956;4.242;2023-02-11T08:35:36;25.80;;;19.90;;
13147;SDS011;6639;50.956;4.242;2023-02-11T08:38:04;26.95;;;18.17;;
13147;SDS011;6639;50.956;4.242;2023-02-11T08:40:31;27.08;;;19.25;;
13147;SDS011;6639;50.956;4.242;2023-02-11T08:43:00;33.05;;;21.38;;
13147;SDS011;6639;50.956;4.242;2023-02-11T08:45:27;28.15;;;20.08;;
13147;SDS011;6639;50.956;4.242;2023-02-11T08:47:55;30.20;;;21.35;;
13147;SDS011;6639;50.956;4.242;2023-02-11T08:50:21;27.17;;;20.23;;
13147;SDS011;6639;50.956;4.242;2023-02-11T08:52:49;32.45;;;20.23;;
13147;SDS011;6639;50.956;4.242;2023-02-11T08:55:17;33.25;;;21.95;;
13147;SDS011;6639;50.956;4.242;2023-02-11T08:57:44;31.83;;;20.60;;
13147;SDS011;6639;50.956;4.242;2023-02-11T09:00:13;27.23;;;20.67;;
13147;SDS011;6639;50.956;4.242;2023-02-11T09:02:41;29.20;;;21.15;;
13147;SDS011;6639;50.956;4.242;2023-02-11T09:05:08;29.15;;;21.50;;
13147;SDS011;6639;50.956;4.242;2023-02-11T09:07:35;33.83;;;23.08;;
13147;SDS011;6639;50.956;4.242;2023-02-11T09:10:02;30.02;;;22.02;;
13147;SDS011;6639;50.956;4.242;2023-02-11T09:12:30;31.02;;;23.23;;
13147;SDS011;6639;50.956;4.242;2023-02-11T09:14:58;36.00;;;25.13;;
13147;SDS011;6639;50.956;4.242;2023-02-11T09:17:27;37.95;;;24.58;;
13147;SDS011;6639;50.956;4.242;2023-02-11T09:19:54;37.80;;;26.85;;
13147;SDS011;6639;50.956;4.242;2023-02-11T09:22:21;39.65;;;26.00;;
13147;SDS011;6639;50.956;4.242;2023-02-11T09:24:48;39.30;;;24.85;;
13147;SDS011;6639;50.956;4.242;2023-02-11T09:27:15;33.75;;;25.38;;
13147;SDS011;6639;50.956;4.242;2023-02-11T09:29:42;39.88;;;26.67;;
13147;SDS011;6639;50.956;4.242;2023-02-11T09:32:10;37.70;;;24.42;;
13147;SDS011;6639;50.956;4.242;2023-02-11T09:34:41;39.22;;;26.17;;
13147;SDS011;6639;50.956;4.242;2023-02-11T09:37:08;39.80;;;26.80;;
13147;SDS011;6639;50.956;4.242;2023-02-11T09:39:35;39.38;;;27.80;;
13147;SDS011;6639;50.956;4.242;2023-02-11T09:42:12;46.05;;;30.20;;
13147;SDS011;6639;50.956;4.242;2023-02-11T09:45:03;46.92;;;29.90;;
13147;SDS011;6639;50.956;4.242;2023-02-11T09:47:37;44.83;;;28.63;;
13147;SDS011;6639;50.956;4.242;2023-02-11T09:50:14;39.47;;;27.02;;
13147;SDS011;6639;50.956;4.242;2023-02-11T09:52:44;42.75;;;26.25;;
13147;SDS011;6639;50.956;4.242;2023-02-11T09:55:16;41.03;;;27.83;;
13147;SDS011;6639;50.956;4.242;2023-02-11T09:57:47;47.20;;;29.30;;
13147;SDS011;6639;50.956;4.242;2023-02-11T10:00:17;44.20;;;28.25;;
13147;SDS011;6639;50.956;4.242;2023-02-11T10:02:56;39.05;;;27.80;;
13147;SDS011;6639;50.956;4.242;2023-02-11T10:05:49;40.40;;;27.95;;
13147;SDS011;6639;50.956;4.242;2023-02-11T10:08:36;39.85;;;26.40;;
13147;SDS011;6639;50.956;4.242;2023-02-11T10:11:09;38.58;;;26.85;;
13147;SDS011;6639;50.956;4.242;2023-02-11T10:13:44;36.63;;;26.27;;
13147;SDS011;6639;50.956;4.242;2023-02-11T10:16:28;35.80;;;26.20;;
13147;SDS011;6639;50.956;4.242;2023-02-11T10:19:17;40.22;;;27.98;;
13147;SDS011;6639;50.956;4.242;2023-02-11T10:22:02;40.38;;;28.08;;
13147;SDS011;6639;50.956;4.242;2023-02-11T10:24:35;41.55;;;27.40;;
13147;SDS011;6639;50.956;4.242;2023-02-11T10:27:05;38.30;;;27.27;;
13147;SDS011;6639;50.956;4.242;2023-02-11T10:29:40;37.10;;;26.40;;
13147;SDS011;6639;50.956;4.242;2023-02-11T10:32:23;39.85;;;26.92;;
13147;SDS011;6639;50.956;4.242;2023-02-11T10:34:59;40.90;;;27.60;;
13147;SDS011;6639;50.956;4.242;2023-02-11T10:37:35;38.75;;;27.67;;
13147;SDS011;6639;50.956;4.242;2023-02-11T10:40:02;41.08;;;27.83;;
13147;SDS011;6639;50.956;4.242;2023-02-11T10:42:29;35.67;;;26.20;;
13147;SDS011;6639;50.956;4.242;2023-02-11T10:44:58;40.35;;;27.77;;
13147;SDS011;6639;50.956;4.242;2023-02-11T10:47:30;37.72;;;27.17;;
13147;SDS011;6639;50.956;4.242;2023-02-11T10:50:06;39.05;;;27.58;;
13147;SDS011;6639;50.956;4.242;2023-02-11T10:52:46;39.63;;;27.20;;
13147;SDS011;6639;50.956;4.242;2023-02-11T10:55:16;38.25;;;28.00;;
13147;SDS011;6639;50.956;4.242;2023-02-11T10:57:51;39.45;;;28.60;;
13147;SDS011;6639;50.956;4.242;2023-02-11T11:03:14;38.97;;;26.83;;
13147;SDS011;6639;50.956;4.242;2023-02-11T11:05:56;39.25;;;27.38;;
13147;SDS011;6639;50.956;4.242;2023-02-11T11:08:37;42.47;;;28.30;;
13147;SDS011;6639;50.956;4.242;2023-02-11T11:11:07;43.03;;;28.08;;
13147;SDS011;6639;50.956;4.242;2023-02-11T11:13:36;35.80;;;26.67;;
13147;SDS011;6639;50.956;4.242;2023-02-11T11:16:15;38.38;;;28.10;;
13147;SDS011;6639;50.956;4.242;2023-02-11T11:18:45;40.20;;;28.73;;
13147;SDS011;6639;50.956;4.242;2023-02-11T11:21:20;38.03;;;27.52;;
13147;SDS011;6639;50.956;4.242;2023-02-11T11:23:54;39.95;;;28.27;;
13147;SDS011;6639;50.956;4.242;2023-02-11T11:26:24;38.50;;;27.60;;
13147;SDS011;6639;50.956;4.242;2023-02-11T11:28:54;38.15;;;27.95;;
13147;SDS011;6639;50.956;4.242;2023-02-11T11:31:24;41.10;;;26.85;;
13147;SDS011;6639;50.956;4.242;2023-02-11T11:33:54;37.05;;;27.08;;
13147;SDS011;6639;50.956;4.242;2023-02-11T11:36:29;41.47;;;28.60;;
13147;SDS011;6639;50.956;4.242;2023-02-11T11:39:02;39.05;;;27.75;;
13147;SDS011;6639;50.956;4.242;2023-02-11T11:41:47;39.00;;;28.92;;
13147;SDS011;6639;50.956;4.242;2023-02-11T11:44:20;39.00;;;27.98;;
13147;SDS011;6639;50.956;4.242;2023-02-11T11:46:52;41.10;;;30.00;;
13147;SDS011;6639;50.956;4.242;2023-02-11T11:49:32;39.72;;;27.92;;
13147;SDS011;6639;50.956;4.242;2023-02-11T11:52:06;33.13;;;26.35;;
13147;SDS011;6639;50.956;4.242;2023-02-11T11:54:43;44.15;;;30.38;;
13147;SDS011;6639;50.956;4.242;2023-02-11T11:57:16;37.70;;;28.55;;
13147;SDS011;6639;50.956;4.242;2023-02-11T11:59:48;30.38;;;27.05;;
13147;SDS011;6639;50.956;4.242;2023-02-11T12:02:21;38.33;;;28.50;;
13147;SDS011;6639;50.956;4.242;2023-02-11T12:05:15;38.22;;;27.40;;
13147;SDS011;6639;50.956;4.242;2023-02-11T12:07:55;36.90;;;27.92;;
13147;SDS011;6639;50.956;4.242;2023-02-11T12:10:36;35.58;;;28.55;;
13147;SDS011;6639;50.956;4.242;2023-02-11T12:13:17;36.47;;;27.98;;
13147;SDS011;6639;50.956;4.242;2023-02-11T12:15:54;37.33;;;27.30;;
13147;SDS011;6639;50.956;4.242;2023-02-11T12:18:34;42.40;;;29.60;;
13147;SDS011;6639;50.956;4.242;2023-02-11T12:21:17;39.95;;;28.50;;
13147;SDS011;6639;50.956;4.242;2023-02-11T12:23:57;39.30;;;28.27;;
13147;SDS011;6639;50.956;4.242;2023-02-11T12:26:37;37.63;;;29.02;;
13147;SDS011;6639;50.956;4.242;2023-02-11T12:29:12;36.47;;;27.33;;
13147;SDS011;6639;50.956;4.242;2023-02-11T12:31:51;37.75;;;27.27;;
13147;SDS011;6639;50.956;4.242;2023-02-11T12:34:41;39.72;;;29.52;;
13147;SDS011;6639;50.956;4.242;2023-02-11T12:37:24;42.13;;;29.92;;
13147;SDS011;6639;50.956;4.242;2023-02-11T12:40:00;35.45;;;28.75;;
13147;SDS011;6639;50.956;4.242;2023-02-11T12:42:40;38.20;;;28.23;;
13147;SDS011;6639;50.956;4.242;2023-02-11T12:48:56;39.38;;;29.77;;
13147;SDS011;6639;50.956;4.242;2023-02-11T12:51:39;45.13;;;30.60;;
13147;SDS011;6639;50.956;4.242;2023-02-11T12:54:18;40.08;;;30.20;;
13147;SDS011;6639;50.956;4.242;2023-02-11T12:56:51;37.60;;;30.05;;
13147;SDS011;6639;50.956;4.242;2023-02-11T12:59:30;40.45;;;29.15;;
13147;SDS011;6639;50.956;4.242;2023-02-11T13:02:05;41.72;;;30.00;;
13147;SDS011;6639;50.956;4.242;2023-02-11T13:04:45;46.28;;;32.42;;
13147;SDS011;6639;50.956;4.242;2023-02-11T13:07:18;36.85;;;30.67;;
13147;SDS011;6639;50.956;4.242;2023-02-11T13:09:50;38.20;;;29.92;;
13147;SDS011;6639;50.956;4.242;2023-02-11T13:12:21;37.47;;;29.67;;
13147;SDS011;6639;50.956;4.242;2023-02-11T13:15:11;40.05;;;31.70;;
13147;SDS011;6639;50.956;4.242;2023-02-11T13:17:42;39.55;;;30.77;;
13147;SDS011;6639;50.956;4.242;2023-02-11T13:20:19;35.47;;;29.50;;
13147;SDS011;6639;50.956;4.242;2023-02-11T13:22:53;39.53;;;32.08;;
13147;SDS011;6639;50.956;4.242;2023-02-11T13:25:37;40.38;;;30.58;;
13147;SDS011;6639;50.956;4.242;2023-02-11T13:28:14;37.08;;;29.75;;
13147;SDS011;6639;50.956;4.242;2023-02-11T13:30:52;41.20;;;30.42;;
13147;SDS011;6639;50.956;4.242;2023-02-11T13:33:30;35.63;;;30.77;;
13147;SDS011;6639;50.956;4.242;2023-02-11T13:36:15;37.15;;;31.02;;
13147;SDS011;6639;50.956;4.242;2023-02-11T13:38:57;38.03;;;31.17;;
13147;SDS011;6639;50.956;4.242;2023-02-11T13:41:33;37.72;;;30.95;;
13147;SDS011;6639;50.956;4.242;2023-02-11T13:44:16;36.92;;;30.40;;
13147;SDS011;6639;50.956;4.242;2023-02-11T13:46:58;35.05;;;30.50;;
13147;SDS011;6639;50.956;4.242;2023-02-11T13:49:31;32.97;;;29.38;;
13147;SDS011;6639;50.956;4.242;2023-02-11T13:52:05;37.08;;;30.13;;
13147;SDS011;6639;50.956;4.242;2023-02-11T13:54:45;34.63;;;30.20;;
13147;SDS011;6639;50.956;4.242;2023-02-11T14:06:23;34.78;;;30.98;;
13147;SDS011;6639;50.956;4.242;2023-02-11T14:12:24;34.83;;;29.60;;
13147;SDS011;6639;50.956;4.242;2023-02-11T14:14:58;34.13;;;30.27;;
13147;SDS011;6639;50.956;4.242;2023-02-11T14:17:28;34.38;;;29.83;;
13147;SDS011;6639;50.956;4.242;2023-02-11T14:19:58;35.60;;;30.65;;
13147;SDS011;6639;50.956;4.242;2023-02-11T14:22:29;34.67;;;30.13;;
13147;SDS011;6639;50.956;4.242;2023-02-11T14:25:12;34.22;;;30.60;;
13147;SDS011;6639;50.956;4.242;2023-02-11T14:27:46;36.08;;;30.73;;
13147;SDS011;6639;50.956;4.242;2023-02-11T14:33:23;35.03;;;30.35;;
13147;SDS011;6639;50.956;4.242;2023-02-11T14:36:41;32.67;;;28.33;;
13147;SDS011;6639;50.956;4.242;2023-02-11T14:39:21;31.92;;;28.30;;
13147;SDS011;6639;50.956;4.242;2023-02-11T14:41:54;34.88;;;29.73;;
13147;SDS011;6639;50.956;4.242;2023-02-11T14:44:24;36.85;;;30.42;;
13147;SDS011;6639;50.956;4.242;2023-02-11T14:47:03;34.95;;;31.20;;
13147;SDS011;6639;50.956;4.242;2023-02-11T14:49:32;35.08;;;29.88;;
13147;SDS011;6639;50.956;4.242;2023-02-11T14:52:05;35.30;;;30.88;;
13147;SDS011;6639;50.956;4.242;2023-02-11T14:54:41;35.55;;;29.65;;
13147;SDS011;6639;50.956;4.242;2023-02-11T14:57:11;36.47;;;30.70;;
13147;SDS011;6639;50.956;4.242;2023-02-11T14:59:48;33.92;;;29.00;;
13147;SDS011;6639;50.956;4.242;2023-02-11T15:02:23;33.65;;;29.15;;
13147;SDS011;6639;50.956;4.242;2023-02-11T15:04:54;34.28;;;30.23;;
13147;SDS011;6639;50.956;4.242;2023-02-11T15:07:43;36.20;;;29.85;;
13147;SDS011;6639;50.956;4.242;2023-02-11T15:10:14;32.03;;;28.60;;
13147;SDS011;6639;50.956;4.242;2023-02-11T15:12:46;35.42;;;30.20;;
13147;SDS011;6639;50.956;4.242;2023-02-11T15:15:14;33.22;;;29.83;;
13147;SDS011;6639;50.956;4.242;2023-02-11T15:17:42;34.10;;;30.02;;
13147;SDS011;6639;50.956;4.242;2023-02-11T15:20:15;35.80;;;31.75;;
13147;SDS011;6639;50.956;4.242;2023-02-11T15:22:48;35.85;;;30.77;;
13147;SDS011;6639;50.956;4.242;2023-02-11T15:25:20;33.78;;;30.23;;
13147;SDS011;6639;50.956;4.242;2023-02-11T15:27:48;35.03;;;29.30;;
13147;SDS011;6639;50.956;4.242;2023-02-11T15:30:23;35.33;;;31.55;;
13147;SDS011;6639;50.956;4.242;2023-02-11T15:32:54;34.03;;;29.80;;